Aeroporto :
LOGIN :

Iscrizione | Disclaimer

   EN    FR    IT 

 










Sommario :    VFR   VFR Marginale   IFR   IFR Intensivo   IFR Molto Intensivo
Visibilità : 
Base nubi : 
>= 8 km
>= 3000ft
5 / 8 km
1000 / 3000 ft
1500m / 5 km
500 / 1000 ft
800 / 1500m
200 / 500 ft
< 800m
< 200 ft
Simboli :   Temporali  Nebbia  Neve Forte  Precipitazioni Forti  Vento > 20 kt
SIGMETs :   Varie  Temporali  Ghiacco  Turbolenza  Onda orograficha  Ceneri Vulcaniche






- Altitudine del aeroporto : 1989 ft
- Codice IATA : KLV


LKKV - Karlovy Vary

ULTIMO METAR :
  • 181030Z 21006KT 150V280 9999 SCT027 16/10 Q1013

METARs OBSOLETI :
  • 181000Z 19005KT 130V240 9999 FEW030 SCT045 16/11 Q1014
  • 180930Z 18004KT 130V240 9999 SCT027 15/10 Q1014
  • 180900Z 19003KT 130V250 9999 SCT027 14/10 Q1014
  • 180830Z 16003KT 120V250 9999 FEW030 15/11 Q1014
  • 180800Z 17003KT 120V230 9999 FEW030 14/10 Q1014

TAF TAF LKKV
Valido dal 18 a 06 ore il 19 a 12 ore UTC


180500Z 1806/1912 VRB02KT 9999 SCT026
TEMPO 1806/1814 BKN026
BECMG 1811/1813 22010KT
BECMG 1814/1816 7000 BKN020
TEMPO 1816/1820 25016G32KT 3000 RA BR OVC007
TEMPO 1820/1903 SCT020
BECMG 1900/1903 14004KT
TEMPO 1904/1912 BKN012



MetMap, La meteo Aeronautica in un colpo d'occhio ! - Copyright ORBIFLY Dicembre 2007 - Disclaimer

ORBIFLY MET'MAP TEAM :

Programmazione e sviluppo : Alexandra Zaïnal
Concezione e sviluppo : Baudouin d'Aumeries
Co-Programmazione e sviluppo : Marc-Olivier Méhu
Supporto tecnico e logistico : Manuel Goepfert
Aiuto per la traduzione : Arnaldo La Scala

Contatto : metmap@orbifly.com




FONTI E CREDITI :

   NOAA